createdAt,value
2023-04-22T00:02:03.237Z,83.90
2023-04-22T00:04:39.682Z,83.69
2023-04-22T00:07:13.997Z,83.17
2023-04-22T00:09:49.475Z,83.45
2023-04-22T00:12:23.908Z,83.44
2023-04-22T00:15:00.209Z,83.47
2023-04-22T00:17:33.605Z,83.66
2023-04-22T00:20:11.890Z,83.74
2023-04-22T00:22:46.748Z,83.80
2023-04-22T00:25:21.714Z,83.69
2023-04-22T00:27:56.999Z,83.83
2023-04-22T00:30:42.234Z,83.49
2023-04-22T00:33:18.412Z,83.19
2023-04-22T00:35:53.495Z,82.42
2023-04-22T00:38:29.356Z,81.93
2023-04-22T00:41:04.792Z,82.02
2023-04-22T00:43:39.571Z,81.88
2023-04-22T00:46:16.143Z,81.87
2023-04-22T00:48:52.906Z,82.10
2023-04-22T00:51:29.230Z,82.36
2023-04-22T00:54:06.021Z,82.54
2023-04-22T00:56:42.142Z,82.20
2023-04-22T00:59:17.104Z,81.84
2023-04-22T01:02:22.290Z,82.09
2023-04-22T01:05:17.071Z,82.85
2023-04-22T01:08:12.433Z,82.11
2023-04-22T01:11:01.915Z,80.47
2023-04-22T01:13:42.745Z,79.92
2023-04-22T01:16:42.741Z,80.30
2023-04-22T01:19:26.236Z,79.91
2023-04-22T01:22:02.695Z,79.11
2023-04-22T01:24:41.390Z,79.46
2023-04-22T01:27:42.592Z,79.97
2023-04-22T01:30:29.128Z,79.88
2023-04-22T01:34:15.437Z,79.96
2023-04-22T01:36:17.668Z,79.96
2023-04-22T01:39:03.267Z,80.19
2023-04-22T01:41:49.306Z,79.86
2023-04-22T01:44:25.369Z,80.07
2023-04-22T01:46:59.708Z,80.38
2023-04-22T01:49:38.131Z,80.61
2023-04-22T01:52:23.695Z,80.78
2023-04-22T01:55:05.112Z,80.93
2023-04-22T01:57:46.347Z,80.95
2023-04-22T02:00:42.934Z,81.06
2023-04-22T02:03:30.854Z,81.02
2023-04-22T02:06:11.436Z,81.12
2023-04-22T02:08:58.986Z,81.07
2023-04-22T02:11:35.223Z,81.40
2023-04-22T02:17:32.248Z,81.79
2023-04-22T02:20:43.149Z,81.90
2023-04-22T02:23:21.126Z,81.81
2023-04-22T02:26:17.576Z,81.48
2023-04-22T02:30:14.313Z,81.45
2023-04-22T02:31:57.125Z,81.59
2023-04-22T02:34:35.569Z,81.79
2023-04-22T02:38:16.314Z,81.81
2023-04-22T02:40:28.449Z,82.15
2023-04-22T02:44:21.821Z,82.03
2023-04-22T02:49:25.445Z,82.40
2023-04-22T02:52:06.241Z,82.15
2023-04-22T02:55:04.544Z,82.06
2023-04-22T02:57:41.521Z,82.22
2023-04-22T03:00:24.525Z,82.06
2023-04-22T03:03:14.415Z,82.05
2023-04-22T03:05:51.247Z,81.78
2023-04-22T03:08:29.578Z,81.81
2023-04-22T03:11:37.706Z,81.93
2023-04-22T03:14:03.953Z,82.05
2023-04-22T03:16:41.948Z,82.03
2023-04-22T03:19:18.165Z,81.81
2023-04-22T03:21:41.957Z,81.76
2023-04-22T03:23:56.269Z,81.52
2023-04-22T03:26:11.875Z,81.28
2023-04-22T03:28:46.417Z,81.44
2023-04-22T03:31:09.561Z,81.45
2023-04-22T03:33:44.235Z,81.65
2023-04-22T03:36:18.012Z,81.62
2023-04-22T03:38:57.322Z,81.63
2023-04-22T03:41:32.017Z,81.69
2023-04-22T03:44:10.829Z,81.68
2023-04-22T03:46:45.228Z,81.60
2023-04-22T03:49:26.286Z,81.38
2023-04-22T03:51:52.928Z,81.40
2023-04-22T03:54:19.187Z,81.60
2023-04-22T03:56:54.921Z,81.62
2023-04-22T03:59:13.528Z,81.75
2023-04-22T04:01:29.246Z,81.72
2023-04-22T04:04:05.367Z,81.65
2023-04-22T04:06:25.264Z,81.48
2023-04-22T04:09:19.340Z,81.66
2023-04-22T04:11:54.498Z,81.74
2023-04-22T04:14:29.010Z,81.73
2023-04-22T04:16:52.941Z,81.76
2023-04-22T04:19:34.296Z,81.89
2023-04-22T04:21:49.995Z,82.09
2023-04-22T04:24:14.579Z,82.29
2023-04-22T04:26:43.676Z,82.54
2023-04-22T04:29:22.268Z,82.56
2023-04-22T04:31:57.114Z,82.67
2023-04-22T04:34:11.992Z,82.69
2023-04-22T04:36:27.385Z,82.72
2023-04-22T04:39:01.586Z,82.63
2023-04-22T04:41:31.360Z,82.41
2023-04-22T04:43:54.944Z,82.46
2023-04-22T04:46:30.777Z,82.74
2023-04-22T04:49:06.973Z,82.80
2023-04-22T04:51:29.206Z,83.00
2023-04-22T04:53:48.640Z,83.15
2023-04-22T04:56:15.102Z,83.23
2023-04-22T04:58:38.733Z,83.28
2023-04-22T05:01:15.572Z,83.44
2023-04-22T05:03:34.954Z,83.53
2023-04-22T05:06:00.906Z,83.57
2023-04-22T05:08:35.947Z,83.41
2023-04-22T05:11:10.913Z,83.43
2023-04-22T05:13:44.998Z,83.35
2023-04-22T05:16:20.748Z,83.35
2023-04-22T05:18:37.369Z,83.27
2023-04-22T05:21:00.937Z,83.08
2023-04-22T05:23:15.974Z,83.05
2023-04-22T05:25:31.369Z,83.14
2023-04-22T05:27:50.037Z,83.30
2023-04-22T05:30:16.840Z,83.43
2023-04-22T05:32:41.380Z,83.62
2023-04-22T05:34:55.920Z,83.63
2023-04-22T05:37:16.169Z,83.77
2023-04-22T05:39:35.579Z,84.00
2023-04-22T05:41:52.229Z,84.04
2023-04-22T05:44:16.968Z,84.38
2023-04-22T05:46:51.269Z,84.25
2023-04-22T05:49:11.090Z,84.22
2023-04-22T05:51:42.887Z,84.11
2023-04-22T05:54:02.032Z,84.11
2023-04-22T05:56:16.982Z,84.23
2023-04-22T05:58:40.857Z,84.16
2023-04-22T06:00:59.853Z,84.17
2023-04-22T06:03:54.533Z,84.12
2023-04-22T06:06:31.426Z,84.12
2023-04-22T06:09:05.894Z,84.21
2023-04-22T06:11:40.855Z,84.09
2023-04-22T06:14:15.586Z,84.29
2023-04-22T06:16:40.025Z,84.48
2023-04-22T06:19:13.767Z,84.46
2023-04-22T06:21:48.946Z,84.57
2023-04-22T06:24:23.036Z,84.60
2023-04-22T06:26:59.519Z,84.74
2023-04-22T06:29:34.824Z,84.95
2023-04-22T06:32:09.322Z,84.90
2023-04-22T06:34:44.707Z,85.05
2023-04-22T06:37:20.406Z,85.22
2023-04-22T06:39:54.525Z,85.20
2023-04-22T06:42:29.819Z,85.21
2023-04-22T06:45:03.840Z,84.92
2023-04-22T06:47:36.921Z,84.79
2023-04-22T06:50:14.875Z,84.51
2023-04-22T06:52:57.524Z,84.22
2023-04-22T06:55:30.776Z,84.20
2023-04-22T06:58:04.652Z,84.15
2023-04-22T07:00:39.627Z,84.07
2023-04-22T07:03:17.804Z,83.92
2023-04-22T07:05:54.116Z,84.09
2023-04-22T07:08:27.744Z,83.98
2023-04-22T07:11:04.792Z,83.94
2023-04-22T07:13:38.822Z,84.02
2023-04-22T07:16:14.978Z,84.24
2023-04-22T07:18:49.440Z,84.02
2023-04-22T07:21:23.820Z,84.18
2023-04-22T07:23:59.291Z,84.19
2023-04-22T07:26:35.728Z,84.48
2023-04-22T07:29:10.159Z,84.56
2023-04-22T07:31:45.132Z,84.51
2023-04-22T07:34:25.152Z,84.71
2023-04-22T07:37:00.132Z,84.76
2023-04-22T07:39:39.636Z,84.83
2023-04-22T07:42:14.060Z,84.86
2023-04-22T07:44:48.871Z,84.95
2023-04-22T07:47:24.077Z,84.93
2023-04-22T07:50:00.495Z,84.89
2023-04-22T07:52:35.342Z,84.81
2023-04-22T07:55:11.392Z,85.04
2023-04-22T07:57:48.324Z,85.05
2023-04-22T08:00:24.912Z,85.41
2023-04-22T08:03:00.872Z,85.61
2023-04-22T08:05:35.677Z,85.62
2023-04-22T08:08:11.017Z,85.58
2023-04-22T08:10:46.167Z,85.83
2023-04-22T08:13:20.808Z,86.38
2023-04-22T08:15:56.453Z,86.40
2023-04-22T08:18:32.241Z,86.40
2023-04-22T08:21:08.098Z,86.46
2023-04-22T08:23:42.621Z,86.64
2023-04-22T08:26:20.179Z,86.77
2023-04-22T08:28:55.671Z,87.01
2023-04-22T08:31:31.277Z,87.12
2023-04-22T08:34:05.712Z,87.24
2023-04-22T08:36:42.282Z,87.52
2023-04-22T08:39:17.529Z,87.79
2023-04-22T08:41:54.196Z,87.92
2023-04-22T08:44:30.205Z,87.84
2023-04-22T08:47:07.099Z,88.01
2023-04-22T08:49:43.261Z,87.92
2023-04-22T08:52:19.066Z,88.06
2023-04-22T08:54:53.831Z,88.19
2023-04-22T08:57:28.503Z,88.40
2023-04-22T09:00:05.356Z,88.50
2023-04-22T09:02:40.802Z,88.50
2023-04-22T09:05:17.959Z,88.81
2023-04-22T09:07:52.391Z,88.89
2023-04-22T09:10:26.395Z,88.51
2023-04-22T09:14:05.036Z,88.73
2023-04-22T09:15:59.757Z,88.78
2023-04-22T09:18:43.569Z,88.77
2023-04-22T09:21:19.536Z,88.87
2023-04-22T09:23:57.723Z,88.88
2023-04-22T09:26:33.569Z,89.08
2023-04-22T09:29:10.738Z,89.01
2023-04-22T09:31:52.414Z,88.85
2023-04-22T09:34:30.980Z,88.83
2023-04-22T09:37:08.136Z,88.89
2023-04-22T09:39:45.408Z,89.06
2023-04-22T09:42:21.266Z,89.13
2023-04-22T09:44:59.930Z,89.23
2023-04-22T09:47:43.902Z,89.20
2023-04-22T09:50:21.086Z,89.30
2023-04-22T09:53:05.502Z,89.26
2023-04-22T09:55:42.719Z,89.28
2023-04-22T09:58:18.705Z,89.29
2023-04-22T10:00:58.179Z,89.39
2023-04-22T10:04:39.744Z,89.62
2023-04-22T10:06:33.188Z,89.59
2023-04-22T10:08:57.422Z,89.63
2023-04-22T10:11:31.586Z,89.87
2023-04-22T10:14:08.001Z,89.79
2023-04-22T10:16:46.923Z,89.98
2023-04-22T10:19:27.075Z,89.86
2023-04-22T10:22:05.331Z,89.92
2023-04-22T10:24:43.845Z,90.27
2023-04-22T10:27:24.490Z,90.11
2023-04-22T10:29:59.886Z,90.16
2023-04-22T10:32:35.408Z,90.37
2023-04-22T10:35:30.075Z,90.37
2023-04-22T10:38:11.353Z,90.47
2023-04-22T10:41:08.824Z,90.49
2023-04-22T10:43:52.722Z,90.61
2023-04-22T10:47:01.156Z,90.74
2023-04-22T10:50:12.483Z,90.86
2023-04-22T10:52:47.681Z,90.81
2023-04-22T10:55:22.715Z,90.87
2023-04-22T10:57:58.305Z,91.00
2023-04-22T11:03:33.143Z,91.05
2023-04-22T11:06:28.653Z,91.26
2023-04-22T11:09:18.046Z,91.79
2023-04-22T11:11:54.382Z,91.61
2023-04-22T11:14:28.476Z,91.60
2023-04-22T11:17:03.637Z,91.54
2023-04-22T11:19:38.107Z,91.50
2023-04-22T11:22:14.807Z,91.57
2023-04-22T11:25:02.476Z,91.98
2023-04-22T11:27:36.897Z,92.08
2023-04-22T11:30:14.997Z,92.05
2023-04-22T11:32:51.048Z,92.14
2023-04-22T11:35:28.569Z,92.15
2023-04-22T11:38:05.304Z,92.01
2023-04-22T11:40:42.802Z,91.88
2023-04-22T11:43:20.950Z,92.04
2023-04-22T11:45:59.423Z,92.45
2023-04-22T11:48:33.781Z,92.21
2023-04-22T11:51:24.926Z,91.95
2023-04-22T11:54:02.293Z,91.90
2023-04-22T11:56:45.466Z,92.15
2023-04-22T11:59:19.836Z,92.05
2023-04-22T12:01:55.511Z,91.96
2023-04-22T12:04:32.331Z,92.24
2023-04-22T12:07:08.595Z,92.28
2023-04-22T12:09:43.909Z,92.60
2023-04-22T12:12:18.716Z,92.42
2023-04-22T12:14:55.393Z,92.22
2023-04-22T12:17:32.512Z,92.60
2023-04-22T12:20:08.563Z,93.05
2023-04-22T12:22:44.641Z,92.95
2023-04-22T12:25:25.839Z,92.79
2023-04-22T12:28:01.768Z,92.93
2023-04-22T12:30:37.249Z,92.95
2023-04-22T12:33:11.566Z,93.05
2023-04-22T12:35:48.301Z,93.76
2023-04-22T12:38:23.598Z,94.25
2023-04-22T12:41:00.504Z,94.61
2023-04-22T12:43:38.929Z,94.73
2023-04-22T12:46:14.485Z,94.74
2023-04-22T12:48:49.833Z,94.89
2023-04-22T12:51:24.008Z,94.93
2023-04-22T12:53:59.560Z,95.25
2023-04-22T12:56:35.446Z,95.38
2023-04-22T12:59:12.447Z,95.26
2023-04-22T13:01:47.540Z,94.67
2023-04-22T13:04:22.101Z,94.08
2023-04-22T13:06:59.174Z,93.84
2023-04-22T13:09:33.477Z,93.68
2023-04-22T13:12:07.985Z,93.66
2023-04-22T13:14:42.928Z,93.65
2023-04-22T13:17:18.845Z,94.01
2023-04-22T13:19:54.141Z,94.18
2023-04-22T13:22:30.532Z,94.19
2023-04-22T13:25:05.677Z,94.38
2023-04-22T13:27:41.499Z,94.40
2023-04-22T13:30:18.893Z,94.31
2023-04-22T13:32:53.322Z,94.38
2023-04-22T13:35:28.622Z,94.37
2023-04-22T13:38:03.281Z,94.26
2023-04-22T13:40:39.728Z,94.43
2023-04-22T13:43:15.574Z,94.42
2023-04-22T13:45:50.609Z,94.38
2023-04-22T13:48:26.595Z,94.27
2023-04-22T13:51:02.276Z,94.28
2023-04-22T13:53:36.848Z,94.27
2023-04-22T13:56:13.925Z,94.28
2023-04-22T13:58:51.496Z,94.33
2023-04-22T14:01:26.518Z,94.67
2023-04-22T14:04:01.150Z,94.53
2023-04-22T14:06:36.288Z,94.50
2023-04-22T14:09:11.010Z,94.41
2023-04-22T14:11:47.647Z,94.63
2023-04-22T14:14:23.127Z,95.09
2023-04-22T14:19:46.496Z,95.65
2023-04-22T14:22:21.637Z,95.86
2023-04-22T14:24:56.986Z,96.08
2023-04-22T14:27:31.077Z,95.65
2023-04-22T14:30:06.274Z,95.58
2023-04-22T14:32:41.234Z,95.85
2023-04-22T14:35:18.220Z,95.76
2023-04-22T14:37:52.936Z,95.66
2023-04-22T14:40:29.451Z,95.95
2023-04-22T14:43:06.029Z,96.13
2023-04-22T14:45:41.550Z,96.35
2023-04-22T14:48:15.866Z,96.48
2023-04-22T14:50:52.410Z,96.26
2023-04-22T14:53:27.397Z,96.15
2023-04-22T14:56:04.027Z,96.24
2023-04-22T14:58:39.195Z,96.24
2023-04-22T15:01:14.060Z,96.53
2023-04-22T15:03:49.985Z,96.72
2023-04-22T15:06:28.839Z,96.78
2023-04-22T15:09:03.848Z,96.79
2023-04-22T15:11:39.366Z,97.02
2023-04-22T15:14:16.687Z,97.26
2023-04-22T15:16:53.923Z,97.65
2023-04-22T15:19:29.435Z,97.82
2023-04-22T15:22:04.843Z,98.34
2023-04-22T15:24:39.782Z,98.58
2023-04-22T15:27:15.266Z,98.54
2023-04-22T15:30:01.254Z,98.57
2023-04-22T15:32:40.409Z,98.62
2023-04-22T15:35:17.331Z,98.80
2023-04-22T15:37:58.931Z,98.97
2023-04-22T15:40:34.154Z,99.10
2023-04-22T15:43:10.233Z,98.45
2023-04-22T15:45:45.282Z,98.70
2023-04-22T15:48:42.473Z,98.70
2023-04-22T15:51:18.954Z,98.48
2023-04-22T15:54:13.138Z,98.48
2023-04-22T15:56:52.263Z,98.66
2023-04-22T15:59:27.511Z,99.35
2023-04-22T16:02:02.142Z,99.75
2023-04-22T16:04:37.631Z,99.31
2023-04-22T16:07:13.575Z,99.04
2023-04-22T16:09:48.810Z,98.26
2023-04-22T16:12:24.521Z,97.28
2023-04-22T16:15:02.062Z,97.34
2023-04-22T16:17:37.218Z,97.55
2023-04-22T16:20:14.028Z,97.52
2023-04-22T16:22:51.650Z,97.32
2023-04-22T16:25:29.459Z,97.04
2023-04-22T16:28:04.228Z,96.76
2023-04-22T16:30:40.198Z,96.56
2023-04-22T16:33:14.850Z,95.80
2023-04-22T16:35:51.144Z,96.09
2023-04-22T16:38:25.352Z,96.11
2023-04-22T16:41:00.728Z,95.92
2023-04-22T16:43:36.245Z,96.01
2023-04-22T16:46:25.598Z,95.62
2023-04-22T16:49:02.451Z,95.84
2023-04-22T16:51:37.639Z,96.17
2023-04-22T16:54:13.357Z,96.24
2023-04-22T16:56:47.127Z,96.39
2023-04-22T16:59:21.892Z,96.42
2023-04-22T17:01:58.729Z,96.63
2023-04-22T17:04:33.796Z,97.05
2023-04-22T17:07:08.817Z,96.75
2023-04-22T17:09:43.769Z,96.69
2023-04-22T17:12:20.646Z,95.79
2023-04-22T17:14:54.790Z,95.68
2023-04-22T17:17:29.016Z,95.34
2023-04-22T17:20:07.595Z,94.67
2023-04-22T17:22:42.728Z,94.67
2023-04-22T17:25:20.069Z,94.17
2023-04-22T17:30:44.422Z,93.77
2023-04-22T17:33:18.633Z,93.47
2023-04-22T17:35:53.977Z,92.51
2023-04-22T17:38:30.885Z,92.83
2023-04-22T17:41:06.497Z,90.79
2023-04-22T17:43:41.627Z,91.62
2023-04-22T17:46:17.145Z,92.10
2023-04-22T17:48:52.502Z,92.04
2023-04-22T17:51:27.739Z,91.89
2023-04-22T17:54:02.849Z,91.40
2023-04-22T17:56:37.301Z,90.52
2023-04-22T17:59:13.820Z,89.67
2023-04-22T18:01:49.179Z,89.21
2023-04-22T18:04:24.999Z,88.85
2023-04-22T18:07:01.301Z,88.80
2023-04-22T18:09:36.068Z,89.02
2023-04-22T18:12:12.280Z,89.84
2023-04-22T18:14:48.908Z,89.72
2023-04-22T18:17:23.719Z,89.14
2023-04-22T18:20:14.010Z,88.60
2023-04-22T18:22:53.257Z,87.89
2023-04-22T18:25:28.608Z,87.28
2023-04-22T18:28:03.179Z,86.74
2023-04-22T18:30:40.426Z,86.87
2023-04-22T18:33:14.628Z,86.34
2023-04-22T18:35:48.980Z,85.76
2023-04-22T18:38:23.988Z,85.99
2023-04-22T18:40:58.436Z,85.65
2023-04-22T18:43:33.499Z,85.76
2023-04-22T18:46:09.346Z,85.63
2023-04-22T18:48:46.621Z,85.29
2023-04-22T18:51:21.415Z,84.65
2023-04-22T18:53:57.112Z,84.69
2023-04-22T18:56:35.254Z,84.59
2023-04-22T18:59:09.051Z,84.05
2023-04-22T19:01:44.535Z,83.99
2023-04-22T19:04:19.062Z,85.09
2023-04-22T19:06:53.314Z,85.04
2023-04-22T19:09:28.715Z,84.84
2023-04-22T19:12:04.655Z,82.47
2023-04-22T19:14:41.391Z,82.22
2023-04-22T19:17:15.389Z,81.96
2023-04-22T19:19:49.176Z,82.07
2023-04-22T19:23:16.108Z,82.68
2023-04-22T19:25:33.455Z,82.64
2023-04-22T19:28:11.834Z,82.51
2023-04-22T19:31:25.980Z,83.41
2023-04-22T19:34:00.631Z,82.71
2023-04-22T19:36:37.762Z,81.55
2023-04-22T19:39:13.488Z,80.86
2023-04-22T19:42:01.696Z,80.75
2023-04-22T19:44:31.354Z,81.16
2023-04-22T19:47:18.517Z,81.64
2023-04-22T19:50:08.524Z,82.23
2023-04-22T19:52:51.857Z,81.73
2023-04-22T19:55:42.261Z,80.97
2023-04-22T19:58:22.942Z,81.06
2023-04-22T20:01:02.375Z,81.65
2023-04-22T20:03:39.797Z,81.34
2023-04-22T20:06:23.842Z,81.37
2023-04-22T20:09:06.618Z,81.44
2023-04-22T20:12:03.076Z,80.57
2023-04-22T20:14:59.001Z,80.54
2023-04-22T20:18:18.696Z,80.66
2023-04-22T20:20:58.917Z,80.41
2023-04-22T20:23:54.455Z,81.42
2023-04-22T20:26:39.452Z,80.79
2023-04-22T20:29:49.513Z,80.64
2023-04-22T20:32:46.444Z,81.14
2023-04-22T20:35:26.731Z,81.00
2023-04-22T20:38:25.990Z,82.31
2023-04-22T20:41:12.109Z,83.19
2023-04-22T20:43:56.951Z,82.65
2023-04-22T20:46:31.675Z,80.35
2023-04-22T20:49:06.103Z,77.59
2023-04-22T20:51:44.777Z,77.79
2023-04-22T20:54:29.094Z,77.60
2023-04-22T20:57:06.470Z,78.03
2023-04-22T20:59:40.378Z,76.91
2023-04-22T21:02:15.898Z,78.08
2023-04-22T21:04:51.412Z,76.77
2023-04-22T21:07:27.941Z,77.03
2023-04-22T21:10:03.900Z,77.15
2023-04-22T21:12:43.243Z,77.92
2023-04-22T21:15:22.255Z,77.96
2023-04-22T21:17:58.620Z,77.64
2023-04-22T21:20:35.568Z,77.68
2023-04-22T21:23:13.545Z,78.31
2023-04-22T21:25:49.896Z,78.36
2023-04-22T21:28:27.522Z,77.54
2023-04-22T21:31:03.722Z,78.02
2023-04-22T21:33:38.608Z,77.00
2023-04-22T21:36:14.002Z,76.60
2023-04-22T21:38:47.673Z,76.51
2023-04-22T21:41:11.854Z,76.53
2023-04-22T21:43:46.000Z,76.25
2023-04-22T21:46:23.274Z,75.37
2023-04-22T21:48:58.482Z,73.65
2023-04-22T21:51:32.356Z,74.89
2023-04-22T21:54:08.542Z,75.06
2023-04-22T21:56:45.053Z,75.27
2023-04-22T21:59:19.657Z,74.84
2023-04-22T22:01:55.033Z,74.63
2023-04-22T22:04:29.588Z,74.69
2023-04-22T22:07:04.185Z,74.14
2023-04-22T22:09:40.529Z,74.62
2023-04-22T22:12:17.005Z,71.97
2023-04-22T22:14:41.560Z,73.63
2023-04-22T22:17:21.010Z,73.38
2023-04-22T22:20:00.417Z,72.48
2023-04-22T22:22:29.826Z,73.35
2023-04-22T22:25:04.744Z,72.80
2023-04-22T22:27:36.177Z,73.73
2023-04-22T22:30:26.365Z,73.62
2023-04-22T22:33:02.372Z,73.86
2023-04-22T22:35:36.134Z,74.37
2023-04-22T22:38:10.504Z,73.73
2023-04-22T22:40:46.676Z,73.39
2023-04-22T22:43:34.202Z,73.70
2023-04-22T22:46:11.246Z,73.78
2023-04-22T22:48:48.404Z,74.58
2023-04-22T22:51:23.937Z,74.52
2023-04-22T22:54:01.177Z,74.70
2023-04-22T22:56:37.147Z,74.70
2023-04-22T22:59:11.730Z,74.84
2023-04-22T23:02:35.477Z,75.36
2023-04-22T23:04:47.486Z,74.41
2023-04-22T23:07:22.875Z,74.33
2023-04-22T23:09:45.364Z,74.48
2023-04-22T23:12:20.604Z,74.78
2023-04-22T23:14:54.613Z,75.37
2023-04-22T23:17:30.506Z,75.67
2023-04-22T23:20:08.288Z,75.61
2023-04-22T23:22:33.397Z,75.99
2023-04-22T23:25:09.748Z,76.15
2023-04-22T23:27:45.483Z,76.37
2023-04-22T23:30:22.161Z,76.44
2023-04-22T23:33:00.465Z,76.69
2023-04-22T23:35:37.136Z,76.73
2023-04-22T23:38:13.749Z,77.31
2023-04-22T23:40:47.951Z,77.64
2023-04-22T23:43:23.654Z,77.78
2023-04-22T23:46:00.969Z,77.50
2023-04-22T23:48:35.175Z,77.31
2023-04-22T23:51:10.165Z,77.56
2023-04-22T23:53:45.390Z,77.62
2023-04-22T23:56:24.167Z,77.49
2023-04-22T23:59:02.106Z,77.69
